MSLPMHTG

Guest
Details From MSLP - El Salvador Intl
To MHTG - Tegucigalpa Toncontin Intl
Flight Number -
Tags generated
Created
Modified
Stats Distance 113 nm / 210 km
Max Altitude 10,000 ft / 3,048 m
Waypoints 5
Social Downloads 16
Likes 0
Share VATSIM

Download

Looking for another format? Having issues loading an existing format? Contact us
Advertisement - Login to hide

Notes

Basic altitude profile: - Ascent Rate: 2500ft/min - Ascent Speed: 250kts - Cruise Altitude: 35000ft - Cruise Speed: 420kts - Descent Rate: 1500ft/min - Descent Speed: 250kts Options: - Use NATs: yes - Use PACOTS: yes - Use low airways: yes - Use high airways: yes

Route

MSLP LEMPA A754 KARID MHTG

ID Type Via Altitude Latitude Longitude Leg Dist Tot Dist Heading (true) Name
O MSLP APT - 0 ft / 0 m 13.44567˚ -89.05174˚ - 0 nm - El Salvador Intl
LEMPA FIX - 7,500 ft / 2,286 m 13.55167˚ -88.70667˚ 21 nm 21 nm 72° / 73° -
VITAN FIX A754 (AWY-LO) 10,000 ft / 3,048 m 13.86167˚ -87.75000˚ 58 nm 79 nm 71° / 72° -
KARID FIX A754 (AWY-LO) 10,000 ft / 3,048 m 13.89833˚ -87.63667˚ 6 nm 86 nm 72° / 72° -
O MHTG APT - 0 ft / 0 m 14.06088˚ -87.21720˚ 26 nm 113 nm 68° / 68° Tegucigalpa Toncontin Intl

Altitude Profile

Advertisement - Login to hide

MSLP

Details ICAO MSLP (SAL)
Name El Salvador Intl
Region El Salvador
Timezone America/El_Salvador (UTC-6.0)
Stats Elevation 101 ft / 31 m (AMSL)
Location 13.445666° -89.051739°
Runways 2
Magnetic Variation 0.453° E

METAR

MSLP 110850Z 02019G40KT 340V050 CAVOK 23/09 Q1014 A2994 NOSIG

Decode

TAF

Not found

Departure Runways

ID Width Length Bearing (true) Bearing (mag) Surface Threshold Offset Overrun Length
07 148 ft / 45 m 10,507 ft / 3,202 m 69.86° 69.41° Asphalt 0 ft / 0 m 200 ft / 61 m
18 75 ft / 23 m 2,639 ft / 804 m 180.00° 179.55° Asphalt 0 ft / 0 m 120 ft / 37 m
25 148 ft / 45 m 10,507 ft / 3,202 m 249.87° 249.42° Asphalt 0 ft / 0 m 200 ft / 61 m
36 75 ft / 23 m 2,639 ft / 804 m 0.00° 359.55° Asphalt 0 ft / 0 m 120 ft / 37 m

MHTG

Details ICAO MHTG (TGU)
Name Tegucigalpa Toncontin Intl
Region Honduras
Timezone America/Tegucigalpa (UTC-6.0)
Stats Elevation 3,294 ft / 1,004 m (AMSL)
Location 14.060883° -87.217197°
Runways 1
Magnetic Variation 0.658° W

METAR

MHTG 110900Z 36008KT 9999 SCT026 SCT200 13/11 Q1024 A3024 NOSIG

Decode

TAF

Not found

Destination Runways

ID Width Length Bearing (true) Bearing (mag) Surface Threshold Offset Overrun Length
02 148 ft / 45 m 6,140 ft / 1,872 m 18.87° 19.53° Asphalt 670 ft / 204 m 100 ft / 30 m
20 148 ft / 45 m 6,140 ft / 1,872 m 198.87° 199.53° Asphalt 0 ft / 0 m 200 ft / 61 m

Popular Alternatives